Terminal Aerodrome Forecast
Issued by NWS

Home | Current Version | Previous Version | Text Only | Print | Product List | Glossary On
Versions: 1 2 3 4 5 6 7 8 9 10 11 12 13 14 15 16 17 18 19
000
FTUS45 KLKN 242320
TAFEKO
TAF
KEKO 242320Z 2500/2524 19013G24KT P6SM BKN070 BKN090 OVC200
     FM250300 23008KT 5SM -RA BKN020 BKN030 OVC050
     FM251300 24005KT P6SM SCT020 BKN035 BKN200
     FM252000 26010KT P6SM BKN035 BKN200=

USA.gov is the U.S. government's official web portal to all federal, state and local government web resources and services.